sensor_id;sensor_type;location;lat;lon;timestamp;P1;durP1;ratioP1;P2;durP2;ratioP2
2480;SDS011;57396;48.742;9.128;2023-10-09T00:01:39;18.70;;;5.93;;
2480;SDS011;57396;48.742;9.128;2023-10-09T00:04:11;27.20;;;6.00;;
2480;SDS011;57396;48.742;9.128;2023-10-09T00:06:37;20.27;;;5.03;;
2480;SDS011;57396;48.742;9.128;2023-10-09T00:09:03;31.30;;;6.73;;
2480;SDS011;57396;48.742;9.128;2023-10-09T00:11:52;20.00;;;7.00;;
2480;SDS011;57396;48.742;9.128;2023-10-09T00:14:28;20.43;;;5.97;;
2480;SDS011;57396;48.742;9.128;2023-10-09T00:16:55;21.03;;;6.40;;
2480;SDS011;57396;48.742;9.128;2023-10-09T00:19:28;29.03;;;6.70;;
2480;SDS011;57396;48.742;9.128;2023-10-09T00:21:58;20.23;;;6.30;;
2480;SDS011;57396;48.742;9.128;2023-10-09T00:24:28;23.60;;;5.80;;
2480;SDS011;57396;48.742;9.128;2023-10-09T00:26:54;20.27;;;6.57;;
2480;SDS011;57396;48.742;9.128;2023-10-09T00:29:44;19.07;;;5.53;;
2480;SDS011;57396;48.742;9.128;2023-10-09T00:32:14;21.03;;;6.30;;
2480;SDS011;57396;48.742;9.128;2023-10-09T00:34:55;21.10;;;6.07;;
2480;SDS011;57396;48.742;9.128;2023-10-09T00:37:23;17.83;;;4.83;;
2480;SDS011;57396;48.742;9.128;2023-10-09T00:39:50;28.47;;;5.37;;
2480;SDS011;57396;48.742;9.128;2023-10-09T00:42:22;26.63;;;6.40;;
2480;SDS011;57396;48.742;9.128;2023-10-09T00:45:00;29.53;;;6.00;;
2480;SDS011;57396;48.742;9.128;2023-10-09T00:47:30;18.47;;;5.70;;
2480;SDS011;57396;48.742;9.128;2023-10-09T00:50:09;32.80;;;6.47;;
2480;SDS011;57396;48.742;9.128;2023-10-09T00:52:40;23.23;;;5.47;;
2480;SDS011;57396;48.742;9.128;2023-10-09T00:55:20;18.83;;;5.87;;
2480;SDS011;57396;48.742;9.128;2023-10-09T00:58:04;24.47;;;5.47;;
2480;SDS011;57396;48.742;9.128;2023-10-09T01:00:37;21.27;;;5.30;;
2480;SDS011;57396;48.742;9.128;2023-10-09T01:03:09;25.47;;;6.10;;
2480;SDS011;57396;48.742;9.128;2023-10-09T01:05:44;24.97;;;5.50;;
2480;SDS011;57396;48.742;9.128;2023-10-09T01:08:28;23.17;;;5.90;;
2480;SDS011;57396;48.742;9.128;2023-10-09T01:11:12;26.47;;;5.63;;
2480;SDS011;57396;48.742;9.128;2023-10-09T01:13:46;22.57;;;5.23;;
2480;SDS011;57396;48.742;9.128;2023-10-09T01:16:16;26.80;;;5.67;;
2480;SDS011;57396;48.742;9.128;2023-10-09T01:18:46;23.27;;;6.00;;
2480;SDS011;57396;48.742;9.128;2023-10-09T01:21:14;25.80;;;6.20;;
2480;SDS011;57396;48.742;9.128;2023-10-09T01:23:44;29.83;;;6.20;;
2480;SDS011;57396;48.742;9.128;2023-10-09T01:26:38;23.73;;;5.63;;
2480;SDS011;57396;48.742;9.128;2023-10-09T01:29:11;27.10;;;5.20;;
2480;SDS011;57396;48.742;9.128;2023-10-09T01:31:43;22.27;;;6.03;;
2480;SDS011;57396;48.742;9.128;2023-10-09T01:34:16;25.57;;;5.97;;
2480;SDS011;57396;48.742;9.128;2023-10-09T01:36:42;24.47;;;6.17;;
2480;SDS011;57396;48.742;9.128;2023-10-09T01:39:07;25.10;;;5.57;;
2480;SDS011;57396;48.742;9.128;2023-10-09T01:41:52;30.17;;;6.77;;
2480;SDS011;57396;48.742;9.128;2023-10-09T01:44:24;23.40;;;5.77;;
2480;SDS011;57396;48.742;9.128;2023-10-09T01:46:51;26.87;;;5.20;;
2480;SDS011;57396;48.742;9.128;2023-10-09T01:49:20;17.30;;;6.17;;
2480;SDS011;57396;48.742;9.128;2023-10-09T01:51:55;29.80;;;5.40;;
2480;SDS011;57396;48.742;9.128;2023-10-09T01:54:23;19.50;;;5.43;;
2480;SDS011;57396;48.742;9.128;2023-10-09T01:57:02;23.33;;;5.57;;
2480;SDS011;57396;48.742;9.128;2023-10-09T01:59:33;15.90;;;4.83;;
2480;SDS011;57396;48.742;9.128;2023-10-09T02:02:03;24.97;;;5.40;;
2480;SDS011;57396;48.742;9.128;2023-10-09T02:04:40;25.00;;;5.13;;
2480;SDS011;57396;48.742;9.128;2023-10-09T02:07:06;37.93;;;6.10;;
2480;SDS011;57396;48.742;9.128;2023-10-09T02:09:33;25.10;;;6.13;;
2480;SDS011;57396;48.742;9.128;2023-10-09T02:12:00;20.00;;;5.67;;
2480;SDS011;57396;48.742;9.128;2023-10-09T02:14:26;24.17;;;5.00;;
2480;SDS011;57396;48.742;9.128;2023-10-09T02:16:51;27.57;;;5.60;;
2480;SDS011;57396;48.742;9.128;2023-10-09T02:19:43;33.13;;;5.00;;
2480;SDS011;57396;48.742;9.128;2023-10-09T02:22:13;30.93;;;5.30;;
2480;SDS011;57396;48.742;9.128;2023-10-09T02:24:40;25.13;;;4.93;;
2480;SDS011;57396;48.742;9.128;2023-10-09T02:27:18;29.20;;;5.63;;
2480;SDS011;57396;48.742;9.128;2023-10-09T02:30:03;25.20;;;5.53;;
2480;SDS011;57396;48.742;9.128;2023-10-09T02:32:44;26.57;;;5.90;;
2480;SDS011;57396;48.742;9.128;2023-10-09T02:35:13;20.87;;;5.33;;
2480;SDS011;57396;48.742;9.128;2023-10-09T02:37:54;18.33;;;5.10;;
2480;SDS011;57396;48.742;9.128;2023-10-09T02:40:19;18.60;;;5.27;;
2480;SDS011;57396;48.742;9.128;2023-10-09T02:42:52;24.87;;;5.50;;
2480;SDS011;57396;48.742;9.128;2023-10-09T02:45:18;26.97;;;5.43;;
2480;SDS011;57396;48.742;9.128;2023-10-09T02:47:44;21.40;;;5.97;;
2480;SDS011;57396;48.742;9.128;2023-10-09T02:50:13;22.10;;;5.93;;
2480;SDS011;57396;48.742;9.128;2023-10-09T02:52:46;16.10;;;5.03;;
2480;SDS011;57396;48.742;9.128;2023-10-09T02:55:12;27.33;;;5.90;;
2480;SDS011;57396;48.742;9.128;2023-10-09T02:57:54;15.83;;;5.30;;
2480;SDS011;57396;48.742;9.128;2023-10-09T03:00:31;18.73;;;5.70;;
2480;SDS011;57396;48.742;9.128;2023-10-09T03:02:58;24.43;;;4.90;;
2480;SDS011;57396;48.742;9.128;2023-10-09T03:05:26;21.10;;;5.20;;
2480;SDS011;57396;48.742;9.128;2023-10-09T03:07:54;22.60;;;5.00;;
2480;SDS011;57396;48.742;9.128;2023-10-09T03:10:21;18.13;;;5.37;;
2480;SDS011;57396;48.742;9.128;2023-10-09T03:12:47;21.30;;;5.17;;
2480;SDS011;57396;48.742;9.128;2023-10-09T03:15:18;24.77;;;4.93;;
2480;SDS011;57396;48.742;9.128;2023-10-09T03:17:45;23.63;;;5.63;;
2480;SDS011;57396;48.742;9.128;2023-10-09T03:20:12;25.67;;;6.10;;
2480;SDS011;57396;48.742;9.128;2023-10-09T03:22:40;16.97;;;4.83;;
2480;SDS011;57396;48.742;9.128;2023-10-09T03:25:07;19.13;;;4.70;;
2480;SDS011;57396;48.742;9.128;2023-10-09T03:27:38;20.30;;;5.43;;
2480;SDS011;57396;48.742;9.128;2023-10-09T03:30:07;28.07;;;6.33;;
2480;SDS011;57396;48.742;9.128;2023-10-09T03:32:35;30.03;;;5.07;;
2480;SDS011;57396;48.742;9.128;2023-10-09T03:35:00;23.83;;;5.07;;
2480;SDS011;57396;48.742;9.128;2023-10-09T03:37:28;27.70;;;6.03;;
2480;SDS011;57396;48.742;9.128;2023-10-09T03:40:00;22.57;;;5.43;;
2480;SDS011;57396;48.742;9.128;2023-10-09T03:42:26;24.93;;;5.77;;
2480;SDS011;57396;48.742;9.128;2023-10-09T03:44:51;26.10;;;5.20;;
2480;SDS011;57396;48.742;9.128;2023-10-09T03:47:18;19.37;;;5.50;;
2480;SDS011;57396;48.742;9.128;2023-10-09T03:49:50;16.40;;;5.50;;
2480;SDS011;57396;48.742;9.128;2023-10-09T03:52:18;29.47;;;5.63;;
2480;SDS011;57396;48.742;9.128;2023-10-09T03:54:44;20.87;;;5.50;;
2480;SDS011;57396;48.742;9.128;2023-10-09T03:57:14;25.73;;;5.40;;
2480;SDS011;57396;48.742;9.128;2023-10-09T03:59:47;28.40;;;5.90;;
2480;SDS011;57396;48.742;9.128;2023-10-09T04:02:13;17.30;;;5.20;;
2480;SDS011;57396;48.742;9.128;2023-10-09T04:04:41;19.87;;;5.10;;
2480;SDS011;57396;48.742;9.128;2023-10-09T04:07:12;20.00;;;5.67;;
2480;SDS011;57396;48.742;9.128;2023-10-09T04:09:38;28.63;;;5.40;;
2480;SDS011;57396;48.742;9.128;2023-10-09T04:12:09;25.00;;;5.03;;
2480;SDS011;57396;48.742;9.128;2023-10-09T04:14:35;14.17;;;5.07;;
2480;SDS011;57396;48.742;9.128;2023-10-09T04:17:01;26.10;;;5.53;;
2480;SDS011;57396;48.742;9.128;2023-10-09T04:19:30;26.53;;;5.50;;
2480;SDS011;57396;48.742;9.128;2023-10-09T04:22:04;22.13;;;5.20;;
2480;SDS011;57396;48.742;9.128;2023-10-09T04:24:33;19.03;;;4.77;;
2480;SDS011;57396;48.742;9.128;2023-10-09T04:27:06;21.97;;;5.00;;
2480;SDS011;57396;48.742;9.128;2023-10-09T04:29:33;25.17;;;5.23;;
2480;SDS011;57396;48.742;9.128;2023-10-09T04:32:04;28.27;;;5.90;;
2480;SDS011;57396;48.742;9.128;2023-10-09T04:34:33;22.07;;;5.67;;
2480;SDS011;57396;48.742;9.128;2023-10-09T04:37:13;19.47;;;5.77;;
2480;SDS011;57396;48.742;9.128;2023-10-09T04:39:39;26.00;;;5.63;;
2480;SDS011;57396;48.742;9.128;2023-10-09T04:42:12;30.70;;;5.67;;
2480;SDS011;57396;48.742;9.128;2023-10-09T04:44:45;20.73;;;4.33;;
2480;SDS011;57396;48.742;9.128;2023-10-09T04:47:31;18.17;;;5.13;;
2480;SDS011;57396;48.742;9.128;2023-10-09T04:50:04;20.17;;;5.13;;
2480;SDS011;57396;48.742;9.128;2023-10-09T04:52:35;21.07;;;5.17;;
2480;SDS011;57396;48.742;9.128;2023-10-09T04:55:01;16.93;;;4.67;;
2480;SDS011;57396;48.742;9.128;2023-10-09T04:57:32;17.40;;;4.67;;
2480;SDS011;57396;48.742;9.128;2023-10-09T05:00:14;24.87;;;5.80;;
2480;SDS011;57396;48.742;9.128;2023-10-09T05:05:22;18.80;;;4.97;;
2480;SDS011;57396;48.742;9.128;2023-10-09T05:08:06;20.90;;;5.07;;
2480;SDS011;57396;48.742;9.128;2023-10-09T05:10:48;15.80;;;4.60;;
2480;SDS011;57396;48.742;9.128;2023-10-09T05:13:26;20.53;;;4.60;;
2480;SDS011;57396;48.742;9.128;2023-10-09T05:16:05;14.30;;;5.27;;
2480;SDS011;57396;48.742;9.128;2023-10-09T05:18:43;26.87;;;4.97;;
2480;SDS011;57396;48.742;9.128;2023-10-09T05:21:30;26.50;;;5.57;;
2480;SDS011;57396;48.742;9.128;2023-10-09T05:23:57;25.07;;;6.33;;
2480;SDS011;57396;48.742;9.128;2023-10-09T05:26:38;25.10;;;5.73;;
2480;SDS011;57396;48.742;9.128;2023-10-09T05:31:53;22.63;;;4.97;;
2480;SDS011;57396;48.742;9.128;2023-10-09T05:34:28;20.33;;;5.67;;
2480;SDS011;57396;48.742;9.128;2023-10-09T05:37:00;20.77;;;5.30;;
2480;SDS011;57396;48.742;9.128;2023-10-09T05:39:45;22.57;;;5.60;;
2480;SDS011;57396;48.742;9.128;2023-10-09T05:42:31;23.40;;;5.87;;
2480;SDS011;57396;48.742;9.128;2023-10-09T05:45:09;25.67;;;6.07;;
2480;SDS011;57396;48.742;9.128;2023-10-09T05:47:54;15.93;;;5.10;;
2480;SDS011;57396;48.742;9.128;2023-10-09T05:50:26;19.07;;;5.53;;
2480;SDS011;57396;48.742;9.128;2023-10-09T05:52:53;24.80;;;6.60;;
2480;SDS011;57396;48.742;9.128;2023-10-09T05:55:19;18.73;;;5.77;;
2480;SDS011;57396;48.742;9.128;2023-10-09T05:57:54;26.67;;;5.60;;
2480;SDS011;57396;48.742;9.128;2023-10-09T06:00:21;22.90;;;5.60;;
2480;SDS011;57396;48.742;9.128;2023-10-09T06:03:05;24.03;;;5.47;;
2480;SDS011;57396;48.742;9.128;2023-10-09T06:05:46;19.93;;;5.53;;
2480;SDS011;57396;48.742;9.128;2023-10-09T06:08:21;18.10;;;5.07;;
2480;SDS011;57396;48.742;9.128;2023-10-09T06:10:52;16.70;;;5.50;;
2480;SDS011;57396;48.742;9.128;2023-10-09T06:13:37;21.20;;;5.40;;
2480;SDS011;57396;48.742;9.128;2023-10-09T06:16:25;23.00;;;6.03;;
2480;SDS011;57396;48.742;9.128;2023-10-09T06:19:28;14.37;;;5.93;;
2480;SDS011;57396;48.742;9.128;2023-10-09T06:21:57;22.10;;;11.90;;
2480;SDS011;57396;48.742;9.128;2023-10-09T06:24:42;25.23;;;9.27;;
2480;SDS011;57396;48.742;9.128;2023-10-09T06:27:13;28.57;;;9.60;;
2480;SDS011;57396;48.742;9.128;2023-10-09T06:29:49;24.93;;;8.00;;
2480;SDS011;57396;48.742;9.128;2023-10-09T06:32:14;24.40;;;6.53;;
2480;SDS011;57396;48.742;9.128;2023-10-09T06:34:46;19.83;;;5.80;;
2480;SDS011;57396;48.742;9.128;2023-10-09T06:37:41;17.70;;;6.17;;
2480;SDS011;57396;48.742;9.128;2023-10-09T06:40:26;22.67;;;6.33;;
2480;SDS011;57396;48.742;9.128;2023-10-09T06:43:30;17.00;;;6.30;;
2480;SDS011;57396;48.742;9.128;2023-10-09T06:45:57;19.47;;;5.30;;
2480;SDS011;57396;48.742;9.128;2023-10-09T06:48:25;21.23;;;6.40;;
2480;SDS011;57396;48.742;9.128;2023-10-09T06:51:03;19.60;;;6.13;;
2480;SDS011;57396;48.742;9.128;2023-10-09T06:53:37;29.93;;;5.60;;
2480;SDS011;57396;48.742;9.128;2023-10-09T06:56:27;18.83;;;6.43;;
2480;SDS011;57396;48.742;9.128;2023-10-09T06:58:56;19.77;;;5.87;;
2480;SDS011;57396;48.742;9.128;2023-10-09T07:01:44;26.90;;;6.33;;
2480;SDS011;57396;48.742;9.128;2023-10-09T07:04:11;19.60;;;5.77;;
2480;SDS011;57396;48.742;9.128;2023-10-09T07:06:47;19.73;;;5.40;;
2480;SDS011;57396;48.742;9.128;2023-10-09T07:09:14;26.50;;;6.43;;
2480;SDS011;57396;48.742;9.128;2023-10-09T07:11:44;15.57;;;5.63;;
2480;SDS011;57396;48.742;9.128;2023-10-09T07:17:01;25.43;;;6.80;;
2480;SDS011;57396;48.742;9.128;2023-10-09T07:19:30;36.20;;;6.37;;
2480;SDS011;57396;48.742;9.128;2023-10-09T07:21:59;17.77;;;5.83;;
2480;SDS011;57396;48.742;9.128;2023-10-09T07:24:31;23.30;;;5.50;;
2480;SDS011;57396;48.742;9.128;2023-10-09T07:27:11;17.70;;;4.77;;
2480;SDS011;57396;48.742;9.128;2023-10-09T07:29:39;19.63;;;5.47;;
2480;SDS011;57396;48.742;9.128;2023-10-09T07:32:14;19.00;;;5.50;;
2480;SDS011;57396;48.742;9.128;2023-10-09T07:34:46;13.27;;;5.10;;
2480;SDS011;57396;48.742;9.128;2023-10-09T07:37:25;19.57;;;5.70;;
2480;SDS011;57396;48.742;9.128;2023-10-09T07:39:55;21.03;;;5.50;;
2480;SDS011;57396;48.742;9.128;2023-10-09T07:42:31;15.17;;;5.03;;
2480;SDS011;57396;48.742;9.128;2023-10-09T07:45:06;22.43;;;5.23;;
2480;SDS011;57396;48.742;9.128;2023-10-09T07:47:57;15.93;;;4.30;;
2480;SDS011;57396;48.742;9.128;2023-10-09T07:50:27;25.77;;;5.60;;
2480;SDS011;57396;48.742;9.128;2023-10-09T07:53:12;24.70;;;5.40;;
2480;SDS011;57396;48.742;9.128;2023-10-09T07:55:43;22.80;;;4.73;;
2480;SDS011;57396;48.742;9.128;2023-10-09T07:58:19;18.33;;;5.00;;
2480;SDS011;57396;48.742;9.128;2023-10-09T08:00:53;22.50;;;4.97;;
2480;SDS011;57396;48.742;9.128;2023-10-09T08:03:33;16.73;;;4.27;;
2480;SDS011;57396;48.742;9.128;2023-10-09T08:06:00;22.80;;;4.97;;
2480;SDS011;57396;48.742;9.128;2023-10-09T08:08:52;18.53;;;4.77;;
2480;SDS011;57396;48.742;9.128;2023-10-09T08:11:36;22.87;;;6.47;;
2480;SDS011;57396;48.742;9.128;2023-10-09T08:14:11;23.13;;;5.40;;
2480;SDS011;57396;48.742;9.128;2023-10-09T08:16:55;18.07;;;4.70;;
2480;SDS011;57396;48.742;9.128;2023-10-09T08:19:47;13.37;;;4.50;;
2480;SDS011;57396;48.742;9.128;2023-10-09T08:22:21;16.70;;;4.70;;
2480;SDS011;57396;48.742;9.128;2023-10-09T08:24:56;16.80;;;4.30;;
2480;SDS011;57396;48.742;9.128;2023-10-09T08:30:12;21.80;;;4.83;;
2480;SDS011;57396;48.742;9.128;2023-10-09T08:32:53;17.50;;;4.77;;
2480;SDS011;57396;48.742;9.128;2023-10-09T08:35:32;21.40;;;4.67;;
2480;SDS011;57396;48.742;9.128;2023-10-09T08:38:02;20.30;;;4.80;;
2480;SDS011;57396;48.742;9.128;2023-10-09T08:40:36;19.47;;;5.00;;
2480;SDS011;57396;48.742;9.128;2023-10-09T08:45:40;19.67;;;4.67;;
2480;SDS011;57396;48.742;9.128;2023-10-09T08:48:10;17.27;;;4.67;;
2480;SDS011;57396;48.742;9.128;2023-10-09T08:50:40;22.97;;;4.77;;
2480;SDS011;57396;48.742;9.128;2023-10-09T08:53:08;21.80;;;5.50;;
2480;SDS011;57396;48.742;9.128;2023-10-09T08:55:34;19.50;;;4.43;;
2480;SDS011;57396;48.742;9.128;2023-10-09T08:58:01;14.03;;;4.00;;
2480;SDS011;57396;48.742;9.128;2023-10-09T09:00:30;23.93;;;4.30;;
2480;SDS011;57396;48.742;9.128;2023-10-09T09:02:58;20.40;;;4.57;;
2480;SDS011;57396;48.742;9.128;2023-10-09T09:05:28;23.50;;;4.63;;
2480;SDS011;57396;48.742;9.128;2023-10-09T09:07:53;26.47;;;5.03;;
2480;SDS011;57396;48.742;9.128;2023-10-09T09:10:27;18.67;;;4.63;;
2480;SDS011;57396;48.742;9.128;2023-10-09T09:13:00;16.93;;;3.87;;
2480;SDS011;57396;48.742;9.128;2023-10-09T09:15:29;20.70;;;4.30;;
2480;SDS011;57396;48.742;9.128;2023-10-09T09:18:05;17.60;;;4.50;;
2480;SDS011;57396;48.742;9.128;2023-10-09T09:20:31;25.83;;;5.27;;
2480;SDS011;57396;48.742;9.128;2023-10-09T09:23:02;28.33;;;4.63;;
2480;SDS011;57396;48.742;9.128;2023-10-09T09:25:43;21.47;;;4.20;;
2480;SDS011;57396;48.742;9.128;2023-10-09T09:28:16;19.20;;;4.77;;
2480;SDS011;57396;48.742;9.128;2023-10-09T09:30:46;22.50;;;4.73;;
2480;SDS011;57396;48.742;9.128;2023-10-09T09:38:26;17.77;;;3.90;;
2480;SDS011;57396;48.742;9.128;2023-10-09T09:40:54;28.67;;;5.30;;
2480;SDS011;57396;48.742;9.128;2023-10-09T09:43:21;23.40;;;4.70;;
2480;SDS011;57396;48.742;9.128;2023-10-09T09:45:47;29.10;;;5.87;;
2480;SDS011;57396;48.742;9.128;2023-10-09T09:48:14;16.33;;;4.07;;
2480;SDS011;57396;48.742;9.128;2023-10-09T09:50:41;31.17;;;5.37;;
2480;SDS011;57396;48.742;9.128;2023-10-09T09:53:15;24.33;;;4.60;;
2480;SDS011;57396;48.742;9.128;2023-10-09T09:55:44;22.80;;;4.70;;
2480;SDS011;57396;48.742;9.128;2023-10-09T09:58:17;24.87;;;5.00;;
2480;SDS011;57396;48.742;9.128;2023-10-09T10:00:49;14.90;;;4.80;;
2480;SDS011;57396;48.742;9.128;2023-10-09T10:03:24;25.50;;;4.83;;
2480;SDS011;57396;48.742;9.128;2023-10-09T10:05:52;19.97;;;5.00;;
2480;SDS011;57396;48.742;9.128;2023-10-09T10:08:21;22.90;;;4.97;;
2480;SDS011;57396;48.742;9.128;2023-10-09T10:10:56;35.80;;;5.17;;
2480;SDS011;57396;48.742;9.128;2023-10-09T10:16:08;24.00;;;4.33;;
2480;SDS011;57396;48.742;9.128;2023-10-09T10:21:33;25.30;;;5.80;;
2480;SDS011;57396;48.742;9.128;2023-10-09T10:29:43;26.90;;;4.70;;
2480;SDS011;57396;48.742;9.128;2023-10-09T10:32:11;39.50;;;5.40;;
2480;SDS011;57396;48.742;9.128;2023-10-09T10:37:12;29.63;;;5.33;;
2480;SDS011;57396;48.742;9.128;2023-10-09T10:39:59;35.10;;;4.90;;
2480;SDS011;57396;48.742;9.128;2023-10-09T10:42:46;22.30;;;5.20;;
2480;SDS011;57396;48.742;9.128;2023-10-09T10:45:31;40.83;;;4.73;;
2480;SDS011;57396;48.742;9.128;2023-10-09T10:47:59;32.70;;;4.87;;
2480;SDS011;57396;48.742;9.128;2023-10-09T10:50:31;35.90;;;5.20;;
2480;SDS011;57396;48.742;9.128;2023-10-09T10:53:12;18.17;;;4.60;;
2480;SDS011;57396;48.742;9.128;2023-10-09T10:55:54;35.40;;;6.13;;
2480;SDS011;57396;48.742;9.128;2023-10-09T10:58:21;26.00;;;4.10;;
2480;SDS011;57396;48.742;9.128;2023-10-09T11:00:54;27.10;;;4.73;;
2480;SDS011;57396;48.742;9.128;2023-10-09T11:03:23;27.47;;;5.00;;
2480;SDS011;57396;48.742;9.128;2023-10-09T11:06:03;22.53;;;4.60;;
2480;SDS011;57396;48.742;9.128;2023-10-09T11:08:47;23.67;;;4.20;;
2480;SDS011;57396;48.742;9.128;2023-10-09T11:11:34;20.90;;;5.00;;
2480;SDS011;57396;48.742;9.128;2023-10-09T11:14:09;21.80;;;4.07;;
2480;SDS011;57396;48.742;9.128;2023-10-09T11:16:39;18.60;;;4.53;;
2480;SDS011;57396;48.742;9.128;2023-10-09T11:19:11;16.13;;;4.10;;
2480;SDS011;57396;48.742;9.128;2023-10-09T11:22:00;40.43;;;5.27;;
2480;SDS011;57396;48.742;9.128;2023-10-09T11:24:35;17.83;;;4.50;;
2480;SDS011;57396;48.742;9.128;2023-10-09T11:27:01;21.70;;;4.30;;
2480;SDS011;57396;48.742;9.128;2023-10-09T11:29:47;22.80;;;4.50;;
2480;SDS011;57396;48.742;9.128;2023-10-09T11:32:17;31.37;;;5.20;;
2480;SDS011;57396;48.742;9.128;2023-10-09T11:34:44;23.57;;;4.07;;
2480;SDS011;57396;48.742;9.128;2023-10-09T11:37:20;17.93;;;4.23;;
2480;SDS011;57396;48.742;9.128;2023-10-09T11:39:56;26.70;;;5.50;;
2480;SDS011;57396;48.742;9.128;2023-10-09T11:42:22;24.70;;;4.80;;
2480;SDS011;57396;48.742;9.128;2023-10-09T11:45:21;14.77;;;5.00;;
2480;SDS011;57396;48.742;9.128;2023-10-09T11:47:54;18.57;;;4.37;;
2480;SDS011;57396;48.742;9.128;2023-10-09T11:53:18;9.13;;;3.40;;
2480;SDS011;57396;48.742;9.128;2023-10-09T11:55:50;17.93;;;4.87;;
2480;SDS011;57396;48.742;9.128;2023-10-09T11:58:17;17.80;;;5.00;;
2480;SDS011;57396;48.742;9.128;2023-10-09T12:00:53;21.50;;;5.77;;
2480;SDS011;57396;48.742;9.128;2023-10-09T12:03:31;18.70;;;5.10;;
2480;SDS011;57396;48.742;9.128;2023-10-09T12:06:01;20.23;;;4.77;;
2480;SDS011;57396;48.742;9.128;2023-10-09T12:08:37;10.23;;;4.63;;
2480;SDS011;57396;48.742;9.128;2023-10-09T12:11:04;15.97;;;4.90;;
2480;SDS011;57396;48.742;9.128;2023-10-09T12:13:33;18.90;;;5.30;;
2480;SDS011;57396;48.742;9.128;2023-10-09T12:15:59;9.10;;;4.73;;
2480;SDS011;57396;48.742;9.128;2023-10-09T12:18:24;14.23;;;5.30;;
2480;SDS011;57396;48.742;9.128;2023-10-09T12:20:50;15.70;;;5.47;;
2480;SDS011;57396;48.742;9.128;2023-10-09T12:23:19;11.13;;;5.20;;
2480;SDS011;57396;48.742;9.128;2023-10-09T12:25:45;20.93;;;5.43;;
2480;SDS011;57396;48.742;9.128;2023-10-09T12:28:13;13.53;;;5.17;;
2480;SDS011;57396;48.742;9.128;2023-10-09T12:30:39;29.03;;;5.70;;
2480;SDS011;57396;48.742;9.128;2023-10-09T12:33:05;15.97;;;5.30;;
2480;SDS011;57396;48.742;9.128;2023-10-09T12:35:35;24.67;;;5.73;;
2480;SDS011;57396;48.742;9.128;2023-10-09T12:38:01;14.90;;;5.17;;
2480;SDS011;57396;48.742;9.128;2023-10-09T12:40:28;15.03;;;5.20;;
2480;SDS011;57396;48.742;9.128;2023-10-09T12:42:56;13.90;;;5.80;;
2480;SDS011;57396;48.742;9.128;2023-10-09T12:45:25;17.40;;;5.23;;
2480;SDS011;57396;48.742;9.128;2023-10-09T12:47:54;12.03;;;5.23;;
2480;SDS011;57396;48.742;9.128;2023-10-09T12:50:26;14.00;;;5.47;;
2480;SDS011;57396;48.742;9.128;2023-10-09T12:52:58;21.97;;;5.27;;
2480;SDS011;57396;48.742;9.128;2023-10-09T12:55:27;13.20;;;5.20;;
2480;SDS011;57396;48.742;9.128;2023-10-09T12:58:00;10.20;;;5.37;;
2480;SDS011;57396;48.742;9.128;2023-10-09T13:00:29;14.77;;;5.23;;
2480;SDS011;57396;48.742;9.128;2023-10-09T13:02:57;12.90;;;5.73;;
2480;SDS011;57396;48.742;9.128;2023-10-09T13:05:26;14.70;;;5.23;;
2480;SDS011;57396;48.742;9.128;2023-10-09T13:07:52;10.00;;;5.67;;
2480;SDS011;57396;48.742;9.128;2023-10-09T13:10:21;11.60;;;5.73;;
2480;SDS011;57396;48.742;9.128;2023-10-09T13:12:49;10.93;;;5.37;;
2480;SDS011;57396;48.742;9.128;2023-10-09T13:15:20;16.13;;;6.47;;
2480;SDS011;57396;48.742;9.128;2023-10-09T13:17:47;13.57;;;5.67;;
2480;SDS011;57396;48.742;9.128;2023-10-09T13:20:12;12.30;;;6.00;;
2480;SDS011;57396;48.742;9.128;2023-10-09T13:22:41;14.33;;;5.53;;
2480;SDS011;57396;48.742;9.128;2023-10-09T13:25:08;12.30;;;6.17;;
2480;SDS011;57396;48.742;9.128;2023-10-09T13:27:42;15.13;;;5.70;;
2480;SDS011;57396;48.742;9.128;2023-10-09T13:30:07;10.70;;;5.20;;
2480;SDS011;57396;48.742;9.128;2023-10-09T13:32:35;12.90;;;5.37;;
2480;SDS011;57396;48.742;9.128;2023-10-09T13:35:04;11.10;;;5.40;;
2480;SDS011;57396;48.742;9.128;2023-10-09T13:37:31;9.20;;;5.40;;
2480;SDS011;57396;48.742;9.128;2023-10-09T13:40:04;11.27;;;5.40;;
2480;SDS011;57396;48.742;9.128;2023-10-09T13:42:36;15.23;;;5.90;;
2480;SDS011;57396;48.742;9.128;2023-10-09T13:45:03;9.70;;;5.43;;
2480;SDS011;57396;48.742;9.128;2023-10-09T13:47:41;9.73;;;5.70;;
2480;SDS011;57396;48.742;9.128;2023-10-09T13:50:09;15.10;;;5.30;;
2480;SDS011;57396;48.742;9.128;2023-10-09T13:52:35;16.23;;;6.00;;
2480;SDS011;57396;48.742;9.128;2023-10-09T13:55:04;11.70;;;5.53;;
2480;SDS011;57396;48.742;9.128;2023-10-09T13:57:42;18.40;;;6.30;;
2480;SDS011;57396;48.742;9.128;2023-10-09T14:00:11;10.83;;;5.40;;
2480;SDS011;57396;48.742;9.128;2023-10-09T14:02:57;7.93;;;5.00;;
2480;SDS011;57396;48.742;9.128;2023-10-09T14:05:27;11.17;;;5.77;;
2480;SDS011;57396;48.742;9.128;2023-10-09T14:07:53;11.37;;;5.70;;
2480;SDS011;57396;48.742;9.128;2023-10-09T14:10:22;13.60;;;6.07;;
2480;SDS011;57396;48.742;9.128;2023-10-09T14:12:51;10.20;;;6.33;;
2480;SDS011;57396;48.742;9.128;2023-10-09T14:15:19;13.03;;;6.43;;
2480;SDS011;57396;48.742;9.128;2023-10-09T14:17:45;11.30;;;5.33;;
2480;SDS011;57396;48.742;9.128;2023-10-09T14:20:12;12.93;;;5.83;;
2480;SDS011;57396;48.742;9.128;2023-10-09T14:22:57;14.63;;;6.43;;
2480;SDS011;57396;48.742;9.128;2023-10-09T14:25:31;10.50;;;6.43;;
2480;SDS011;57396;48.742;9.128;2023-10-09T14:27:57;16.97;;;5.83;;
2480;SDS011;57396;48.742;9.128;2023-10-09T14:30:23;12.30;;;6.50;;
2480;SDS011;57396;48.742;9.128;2023-10-09T14:32:56;16.70;;;6.97;;
2480;SDS011;57396;48.742;9.128;2023-10-09T14:35:22;11.10;;;6.47;;
2480;SDS011;57396;48.742;9.128;2023-10-09T14:37:52;15.37;;;6.10;;
2480;SDS011;57396;48.742;9.128;2023-10-09T14:40:19;12.83;;;6.30;;
2480;SDS011;57396;48.742;9.128;2023-10-09T14:42:55;8.67;;;6.20;;
2480;SDS011;57396;48.742;9.128;2023-10-09T14:45:23;8.87;;;5.20;;
2480;SDS011;57396;48.742;9.128;2023-10-09T14:47:52;15.60;;;6.00;;
2480;SDS011;57396;48.742;9.128;2023-10-09T14:50:19;12.07;;;6.03;;
2480;SDS011;57396;48.742;9.128;2023-10-09T14:52:47;10.63;;;6.30;;
2480;SDS011;57396;48.742;9.128;2023-10-09T14:55:15;11.80;;;6.60;;
2480;SDS011;57396;48.742;9.128;2023-10-09T14:57:46;14.33;;;6.47;;
2480;SDS011;57396;48.742;9.128;2023-10-09T15:00:14;12.23;;;5.93;;
2480;SDS011;57396;48.742;9.128;2023-10-09T15:02:40;8.23;;;5.90;;
2480;SDS011;57396;48.742;9.128;2023-10-09T15:05:06;17.20;;;5.57;;
2480;SDS011;57396;48.742;9.128;2023-10-09T15:07:36;12.50;;;5.53;;
2480;SDS011;57396;48.742;9.128;2023-10-09T15:10:04;10.43;;;5.83;;
2480;SDS011;57396;48.742;9.128;2023-10-09T15:12:30;11.40;;;6.00;;
2480;SDS011;57396;48.742;9.128;2023-10-09T15:14:56;9.43;;;5.63;;
2480;SDS011;57396;48.742;9.128;2023-10-09T15:17:22;12.50;;;6.23;;
2480;SDS011;57396;48.742;9.128;2023-10-09T15:19:49;13.57;;;7.03;;
2480;SDS011;57396;48.742;9.128;2023-10-09T15:22:20;19.90;;;6.80;;
2480;SDS011;57396;48.742;9.128;2023-10-09T15:24:46;12.00;;;6.00;;
2480;SDS011;57396;48.742;9.128;2023-10-09T15:27:11;12.30;;;6.83;;
2480;SDS011;57396;48.742;9.128;2023-10-09T15:29:38;12.30;;;6.47;;
2480;SDS011;57396;48.742;9.128;2023-10-09T15:32:08;11.70;;;6.20;;
2480;SDS011;57396;48.742;9.128;2023-10-09T15:34:40;14.40;;;6.07;;
2480;SDS011;57396;48.742;9.128;2023-10-09T15:37:06;24.20;;;5.83;;
2480;SDS011;57396;48.742;9.128;2023-10-09T15:39:35;13.40;;;6.10;;
2480;SDS011;57396;48.742;9.128;2023-10-09T15:42:01;17.97;;;6.17;;
2480;SDS011;57396;48.742;9.128;2023-10-09T15:44:29;13.93;;;5.87;;
2480;SDS011;57396;48.742;9.128;2023-10-09T15:46:58;12.87;;;5.20;;
2480;SDS011;57396;48.742;9.128;2023-10-09T15:49:28;12.97;;;5.30;;
2480;SDS011;57396;48.742;9.128;2023-10-09T15:51:55;17.50;;;5.83;;
2480;SDS011;57396;48.742;9.128;2023-10-09T15:54:21;12.23;;;5.50;;